sensor_id;sensor_type;location;lat;lon;timestamp;pressure;altitude;pressure_sealevel;temperature;humidity
62980;BME280;49075;53.988;27.678;2023-02-15T00:01:39;999.2;;;-3.1;61.1
62980;BME280;49075;53.988;27.678;2023-02-15T00:06:27;999.1;;;-3.1;61.1
62980;BME280;49075;53.988;27.678;2023-02-15T00:11:18;999.1;;;-3;61.3
62980;BME280;49075;53.988;27.678;2023-02-15T00:16:17;999.1;;;-3;61.1
62980;BME280;49075;53.988;27.678;2023-02-15T00:21:28;999.2;;;-3;61.4
62980;BME280;49075;53.988;27.678;2023-02-15T00:26:17;999.3;;;-3;61.5
62980;BME280;49075;53.988;27.678;2023-02-15T00:31:23;999.3;;;-3;61.5
62980;BME280;49075;53.988;27.678;2023-02-15T00:36:27;999.3;;;-3.1;61.6
62980;BME280;49075;53.988;27.678;2023-02-15T00:41:17;999.3;;;-3;61.1
62980;BME280;49075;53.988;27.678;2023-02-15T00:46:39;999.3;;;-2.9;61.1
62980;BME280;49075;53.988;27.678;2023-02-15T00:51:17;999.3;;;-2.7;60.8
62980;BME280;49075;53.988;27.678;2023-02-15T00:56:17;999.4;;;-2.6;60.9
62980;BME280;49075;53.988;27.678;2023-02-15T01:01:27;999.5;;;-2.7;61.5
62980;BME280;49075;53.988;27.678;2023-02-15T01:06:29;999.5;;;-2.7;61.5
62980;BME280;49075;53.988;27.678;2023-02-15T01:11:27;999.4;;;-2.7;61.5
62980;BME280;49075;53.988;27.678;2023-02-15T01:17:01;999.4;;;-2.7;61.8
62980;BME280;49075;53.988;27.678;2023-02-15T01:21:18;999.4;;;-2.6;61.5
62980;BME280;49075;53.988;27.678;2023-02-15T01:26:29;999.4;;;-2.6;61.7
62980;BME280;49075;53.988;27.678;2023-02-15T01:31:19;999.4;;;-2.5;61.1
62980;BME280;49075;53.988;27.678;2023-02-15T01:36:17;999.5;;;-2.4;61.3
62980;BME280;49075;53.988;27.678;2023-02-15T01:41:29;999.5;;;-2.4;61
62980;BME280;49075;53.988;27.678;2023-02-15T01:46:28;999.5;;;-2.4;61.1
62980;BME280;49075;53.988;27.678;2023-02-15T01:51:36;999.5;;;-2.3;60.9
62980;BME280;49075;53.988;27.678;2023-02-15T01:56:47;999.6;;;-2.4;61.4
62980;BME280;49075;53.988;27.678;2023-02-15T02:01:39;999.6;;;-2.4;61.4
62980;BME280;49075;53.988;27.678;2023-02-15T02:06:27;999.6;;;-2.5;61.9
62980;BME280;49075;53.988;27.678;2023-02-15T02:11:27;999.6;;;-2.5;61.5
62980;BME280;49075;53.988;27.678;2023-02-15T02:16:27;999.6;;;-2.5;61.9
62980;BME280;49075;53.988;27.678;2023-02-15T02:21:23;999.6;;;-2.4;61.3
62980;BME280;49075;53.988;27.678;2023-02-15T02:26:50;999.6;;;-2.5;61.9
62980;BME280;49075;53.988;27.678;2023-02-15T02:31:30;999.6;;;-2.4;61.5
62980;BME280;49075;53.988;27.678;2023-02-15T02:36:42;999.6;;;-2.4;61.9
62980;BME280;49075;53.988;27.678;2023-02-15T02:41:18;999.7;;;-2.4;61.6
62980;BME280;49075;53.988;27.678;2023-02-15T02:46:30;999.6;;;-2.5;62.1
62980;BME280;49075;53.988;27.678;2023-02-15T02:51:27;999.6;;;-2.4;61.7
62980;BME280;49075;53.988;27.678;2023-02-15T02:56:30;999.6;;;-2.4;62
62980;BME280;49075;53.988;27.678;2023-02-15T03:01:19;999.6;;;-2.4;61.6
62980;BME280;49075;53.988;27.678;2023-02-15T03:06:18;999.6;;;-2.4;62
62980;BME280;49075;53.988;27.678;2023-02-15T03:11:17;999.6;;;-2.4;61.7
62980;BME280;49075;53.988;27.678;2023-02-15T03:16:39;999.6;;;-2.3;62
62980;BME280;49075;53.988;27.678;2023-02-15T03:21:31;999.7;;;-2.3;61.8
62980;BME280;49075;53.988;27.678;2023-02-15T03:26:25;999.7;;;-2.3;61.9
62980;BME280;49075;53.988;27.678;2023-02-15T03:31:30;999.7;;;-2.3;61.6
62980;BME280;49075;53.988;27.678;2023-02-15T03:36:31;999.7;;;-2.2;61.7
62980;BME280;49075;53.988;27.678;2023-02-15T03:41:17;999.7;;;-2.3;61.7
62980;BME280;49075;53.988;27.678;2023-02-15T03:46:28;999.7;;;-2.2;61.9
62980;BME280;49075;53.988;27.678;2023-02-15T03:51:28;999.7;;;-2.2;61.8
62980;BME280;49075;53.988;27.678;2023-02-15T03:56:17;999.7;;;-2.1;61.9
62980;BME280;49075;53.988;27.678;2023-02-15T04:01:18;999.7;;;-2.1;61.8
62980;BME280;49075;53.988;27.678;2023-02-15T04:06:17;999.7;;;-2.1;61.9
62980;BME280;49075;53.988;27.678;2023-02-15T04:11:17;999.6;;;-2.1;61.8
62980;BME280;49075;53.988;27.678;2023-02-15T04:16:29;999.6;;;-2;61.9
62980;BME280;49075;53.988;27.678;2023-02-15T04:21:35;999.5;;;-2;61.7
62980;BME280;49075;53.988;27.678;2023-02-15T04:26:17;999.6;;;-2;61.9
62980;BME280;49075;53.988;27.678;2023-02-15T04:31:39;999.6;;;-2;61.8
62980;BME280;49075;53.988;27.678;2023-02-15T04:36:45;999.6;;;-1.9;61.7
62980;BME280;49075;53.988;27.678;2023-02-15T04:41:17;999.6;;;-2;62
62980;BME280;49075;53.988;27.678;2023-02-15T04:46:29;999.7;;;-1.9;61.8
62980;BME280;49075;53.988;27.678;2023-02-15T04:51:29;999.6;;;-2;62.3
62980;BME280;49075;53.988;27.678;2023-02-15T04:56:39;999.6;;;-2;62.1
62980;BME280;49075;53.988;27.678;2023-02-15T05:01:17;999.6;;;-2;62.4
62980;BME280;49075;53.988;27.678;2023-02-15T05:06:17;999.5;;;-1.9;62.1
62980;BME280;49075;53.988;27.678;2023-02-15T05:11:37;999.5;;;-2;62.4
62980;BME280;49075;53.988;27.678;2023-02-15T05:16:17;999.5;;;-1.9;62.3
62980;BME280;49075;53.988;27.678;2023-02-15T05:21:27;999.5;;;-1.9;62.4
62980;BME280;49075;53.988;27.678;2023-02-15T05:26:45;999.5;;;-1.9;62.4
62980;BME280;49075;53.988;27.678;2023-02-15T05:31:39;999.5;;;-1.9;62.3
62980;BME280;49075;53.988;27.678;2023-02-15T05:36:39;999.5;;;-1.9;62.5
62980;BME280;49075;53.988;27.678;2023-02-15T05:41:17;999.5;;;-1.9;62.4
62980;BME280;49075;53.988;27.678;2023-02-15T05:46:29;999.5;;;-1.9;62.5
62980;BME280;49075;53.988;27.678;2023-02-15T05:51:17;999.6;;;-1.9;62.4
62980;BME280;49075;53.988;27.678;2023-02-15T05:56:17;999.6;;;-1.8;62.6
62980;BME280;49075;53.988;27.678;2023-02-15T06:01:35;999.6;;;-1.7;62.3
62980;BME280;49075;53.988;27.678;2023-02-15T06:06:41;999.7;;;-1.7;62.6
62980;BME280;49075;53.988;27.678;2023-02-15T06:11:17;999.7;;;-1.6;62.4
62980;BME280;49075;53.988;27.678;2023-02-15T06:16:17;999.7;;;-1.5;62.5
62980;BME280;49075;53.988;27.678;2023-02-15T06:21:19;999.7;;;-1.5;62.3
62980;BME280;49075;53.988;27.678;2023-02-15T06:26:19;999.7;;;-1.4;62.3
62980;BME280;49075;53.988;27.678;2023-02-15T06:31:45;999.7;;;-1.3;62.2
62980;BME280;49075;53.988;27.678;2023-02-15T06:36:17;999.7;;;-1.2;62
62980;BME280;49075;53.988;27.678;2023-02-15T06:41:39;999.7;;;-1.2;61.9
62980;BME280;49075;53.988;27.678;2023-02-15T06:46:25;999.6;;;-1.1;61.8
62980;BME280;49075;53.988;27.678;2023-02-15T06:51:17;999.6;;;-1.1;61.7
62980;BME280;49075;53.988;27.678;2023-02-15T06:56:17;999.7;;;-1;61.8
62980;BME280;49075;53.988;27.678;2023-02-15T07:01:27;999.6;;;-1;61.7
62980;BME280;49075;53.988;27.678;2023-02-15T07:06:30;999.6;;;-0.8;61.5
62980;BME280;49075;53.988;27.678;2023-02-15T07:11:17;999.6;;;-0.8;61.3
62980;BME280;49075;53.988;27.678;2023-02-15T07:16:39;999.6;;;-0.6;61
62980;BME280;49075;53.988;27.678;2023-02-15T07:21:39;999.6;;;-0.6;60.8
62980;BME280;49075;53.988;27.678;2023-02-15T07:26:31;999.6;;;-0.5;60.7
62980;BME280;49075;53.988;27.678;2023-02-15T07:31:23;999.7;;;-0.5;60.7
62980;BME280;49075;53.988;27.678;2023-02-15T07:36:29;999.7;;;-0.4;60.6
62980;BME280;49075;53.988;27.678;2023-02-15T07:41:17;999.7;;;-0.4;60.4
62980;BME280;49075;53.988;27.678;2023-02-15T07:46:17;999.7;;;-0.4;60.5
62980;BME280;49075;53.988;27.678;2023-02-15T07:51:35;999.8;;;-0.3;60.4
62980;BME280;49075;53.988;27.678;2023-02-15T07:56:27;999.8;;;-0.2;60.2
62980;BME280;49075;53.988;27.678;2023-02-15T08:01:29;999.7;;;-0.1;60
62980;BME280;49075;53.988;27.678;2023-02-15T08:06:37;999.7;;;0;59.9
62980;BME280;49075;53.988;27.678;2023-02-15T08:11:18;999.7;;;0.1;59.4
62980;BME280;49075;53.988;27.678;2023-02-15T08:16:17;999.7;;;0.2;59.2
62980;BME280;49075;53.988;27.678;2023-02-15T08:21:17;999.7;;;0.2;59
62980;BME280;49075;53.988;27.678;2023-02-15T08:26:38;999.7;;;0.4;58.9
62980;BME280;49075;53.988;27.678;2023-02-15T08:31:17;999.7;;;0.5;58.3
62980;BME280;49075;53.988;27.678;2023-02-15T08:36:18;999.7;;;0.6;58.2
62980;BME280;49075;53.988;27.678;2023-02-15T08:41:28;999.7;;;0.7;57.9
62980;BME280;49075;53.988;27.678;2023-02-15T08:46:20;999.6;;;0.8;57.8
62980;BME280;49075;53.988;27.678;2023-02-15T08:51:30;999.6;;;0.9;57.7
62980;BME280;49075;53.988;27.678;2023-02-15T08:56:36;999.6;;;1.1;57.3
62980;BME280;49075;53.988;27.678;2023-02-15T09:01:26;999.5;;;1.2;56.8
62980;BME280;49075;53.988;27.678;2023-02-15T09:06:17;999.5;;;1.2;56.9
62980;BME280;49075;53.988;27.678;2023-02-15T09:11:26;999.5;;;1.4;56.4
62980;BME280;49075;53.988;27.678;2023-02-15T09:16:17;999.5;;;1.4;56.2
62980;BME280;49075;53.988;27.678;2023-02-15T09:21:28;999.5;;;1.4;56.3
62980;BME280;49075;53.988;27.678;2023-02-15T09:26:25;999.5;;;1.6;56
62980;BME280;49075;53.988;27.678;2023-02-15T09:31:40;999.5;;;1.8;55.7
62980;BME280;49075;53.988;27.678;2023-02-15T09:36:28;999.5;;;1.7;55.1
62980;BME280;49075;53.988;27.678;2023-02-15T09:46:45;999.5;;;2.1;54.5
62980;BME280;49075;53.988;27.678;2023-02-15T09:51:21;999.5;;;2.4;54.6
62980;BME280;49075;53.988;27.678;2023-02-15T09:56:28;999.4;;;2.5;53.9
62980;BME280;49075;53.988;27.678;2023-02-15T10:01:31;999.4;;;2.6;54.3
62980;BME280;49075;53.988;27.678;2023-02-15T10:06:42;999.3;;;2.9;53.7
62980;BME280;49075;53.988;27.678;2023-02-15T10:11:19;999.3;;;2.8;52.6
62980;BME280;49075;53.988;27.678;2023-02-15T10:16:39;999.3;;;2.9;53
62980;BME280;49075;53.988;27.678;2023-02-15T10:21:19;999.2;;;2.9;52.1
62980;BME280;49075;53.988;27.678;2023-02-15T10:26:28;999.1;;;2.9;52.7
62980;BME280;49075;53.988;27.678;2023-02-15T10:31:22;999.1;;;2.8;52
62980;BME280;49075;53.988;27.678;2023-02-15T10:36:31;999.1;;;2.9;52.3
62980;BME280;49075;53.988;27.678;2023-02-15T10:41:32;999;;;3;52
62980;BME280;49075;53.988;27.678;2023-02-15T10:46:21;999;;;3;51.8
62980;BME280;49075;53.988;27.678;2023-02-15T10:51:30;999;;;2.9;51.4
62980;BME280;49075;53.988;27.678;2023-02-15T10:56:42;999;;;2.9;51.5
62980;BME280;49075;53.988;27.678;2023-02-15T11:01:38;999;;;2.8;51.5
62980;BME280;49075;53.988;27.678;2023-02-15T11:06:25;999;;;2.8;51.8
62980;BME280;49075;53.988;27.678;2023-02-15T11:11:19;998.9;;;2.8;51.5
62980;BME280;49075;53.988;27.678;2023-02-15T11:16:18;998.9;;;2.9;51.3
62980;BME280;49075;53.988;27.678;2023-02-15T11:21:19;998.9;;;2.8;50.9
62980;BME280;49075;53.988;27.678;2023-02-15T11:26:19;998.8;;;2.9;51.4
62980;BME280;49075;53.988;27.678;2023-02-15T11:31:18;998.8;;;3;50.6
62980;BME280;49075;53.988;27.678;2023-02-15T11:36:18;998.8;;;3.1;50.7
62980;BME280;49075;53.988;27.678;2023-02-15T11:41:31;998.8;;;3.2;50
62980;BME280;49075;53.988;27.678;2023-02-15T11:46:17;998.8;;;3.3;50.2
62980;BME280;49075;53.988;27.678;2023-02-15T11:51:18;998.8;;;3.3;49.7
62980;BME280;49075;53.988;27.678;2023-02-15T11:56:39;998.8;;;3.3;49.7
62980;BME280;49075;53.988;27.678;2023-02-15T12:01:19;998.8;;;3.2;49.3
62980;BME280;49075;53.988;27.678;2023-02-15T12:06:28;998.8;;;3.2;49.6
62980;BME280;49075;53.988;27.678;2023-02-15T12:11:38;998.7;;;3.1;49.7
62980;BME280;49075;53.988;27.678;2023-02-15T12:16:25;998.7;;;3.1;49.6
62980;BME280;49075;53.988;27.678;2023-02-15T12:21:24;998.7;;;3.1;49.5
62980;BME280;49075;53.988;27.678;2023-02-15T12:26:40;998.6;;;3.2;49.7
62980;BME280;49075;53.988;27.678;2023-02-15T12:31:19;998.6;;;3.2;49
62980;BME280;49075;53.988;27.678;2023-02-15T12:36:30;998.6;;;3.3;49.3
62980;BME280;49075;53.988;27.678;2023-02-15T12:41:21;998.5;;;3.4;48.7
62980;BME280;49075;53.988;27.678;2023-02-15T12:46:19;998.5;;;3.5;49.1
62980;BME280;49075;53.988;27.678;2023-02-15T12:51:17;998.4;;;3.4;49
62980;BME280;49075;53.988;27.678;2023-02-15T12:56:49;998.4;;;3.4;49.3
62980;BME280;49075;53.988;27.678;2023-02-15T13:01:27;998.4;;;3.3;49
62980;BME280;49075;53.988;27.678;2023-02-15T13:06:48;998.4;;;3.2;49.3
62980;BME280;49075;53.988;27.678;2023-02-15T13:11:50;998.4;;;3;49.1
62980;BME280;49075;53.988;27.678;2023-02-15T13:16:41;998.4;;;2.8;49.7
62980;BME280;49075;53.988;27.678;2023-02-15T13:21:40;998.3;;;2.7;49.7
62980;BME280;49075;53.988;27.678;2023-02-15T13:26:29;998.3;;;2.7;50.1
62980;BME280;49075;53.988;27.678;2023-02-15T13:31:50;998.3;;;2.7;49.8
62980;BME280;49075;53.988;27.678;2023-02-15T13:36:21;998.3;;;2.6;50
62980;BME280;49075;53.988;27.678;2023-02-15T13:41:22;998.4;;;2.4;50
62980;BME280;49075;53.988;27.678;2023-02-15T13:46:23;998.3;;;2.4;50.3
62980;BME280;49075;53.988;27.678;2023-02-15T13:52:08;998.3;;;2.4;50.2
62980;BME280;49075;53.988;27.678;2023-02-15T13:56:55;998.3;;;2.5;50.3
62980;BME280;49075;53.988;27.678;2023-02-15T14:01:40;998.3;;;2.4;50.2
62980;BME280;49075;53.988;27.678;2023-02-15T14:06:24;998.3;;;2.4;50.5
62980;BME280;49075;53.988;27.678;2023-02-15T14:11:43;998.3;;;2.4;50.5
62980;BME280;49075;53.988;27.678;2023-02-15T14:16:34;998.3;;;2.3;50.5
62980;BME280;49075;53.988;27.678;2023-02-15T14:21:22;998.3;;;2.3;50.6
62980;BME280;49075;53.988;27.678;2023-02-15T14:26:33;998.3;;;2.3;50.8
62980;BME280;49075;53.988;27.678;2023-02-15T14:36:29;998.3;;;2.5;50.5
62980;BME280;49075;53.988;27.678;2023-02-15T14:41:36;998.2;;;2.4;50.6
62980;BME280;49075;53.988;27.678;2023-02-15T14:46:30;998.2;;;2.3;51
62980;BME280;49075;53.988;27.678;2023-02-15T14:52:23;998.2;;;2.2;51
62980;BME280;49075;53.988;27.678;2023-02-15T14:56:23;998.2;;;2.1;51.2
62980;BME280;49075;53.988;27.678;2023-02-15T15:01:30;998.1;;;1.9;51.6
62980;BME280;49075;53.988;27.678;2023-02-15T15:06:23;998.1;;;1.8;52
62980;BME280;49075;53.988;27.678;2023-02-15T15:11:43;998.1;;;1.8;52.3
62980;BME280;49075;53.988;27.678;2023-02-15T15:16:30;998.1;;;1.7;52.4
62980;BME280;49075;53.988;27.678;2023-02-15T15:22:03;998.1;;;1.7;52.6
62980;BME280;49075;53.988;27.678;2023-02-15T15:26:20;998.1;;;1.6;52.9
62980;BME280;49075;53.988;27.678;2023-02-15T15:31:35;998.1;;;1.6;53.1
62980;BME280;49075;53.988;27.678;2023-02-15T15:36:37;998.1;;;1.5;53.5
62980;BME280;49075;53.988;27.678;2023-02-15T15:41:32;998.1;;;1.4;53.7
62980;BME280;49075;53.988;27.678;2023-02-15T15:46:24;998.1;;;1.4;54.1
62980;BME280;49075;53.988;27.678;2023-02-15T15:51:40;998.1;;;1.4;54.3
62980;BME280;49075;53.988;27.678;2023-02-15T15:56:43;998;;;1.3;54.6
62980;BME280;49075;53.988;27.678;2023-02-15T16:01:41;998;;;1.3;54.7
62980;BME280;49075;53.988;27.678;2023-02-15T16:06:30;998;;;1.2;55.3
62980;BME280;49075;53.988;27.678;2023-02-15T16:11:20;998;;;1.1;55.6
62980;BME280;49075;53.988;27.678;2023-02-15T16:16:20;998;;;1.1;55.9
62980;BME280;49075;53.988;27.678;2023-02-15T16:21:20;998;;;1;56.3
62980;BME280;49075;53.988;27.678;2023-02-15T16:26:43;998;;;1;56.4
62980;BME280;49075;53.988;27.678;2023-02-15T16:31:29;998;;;1;56.7
62980;BME280;49075;53.988;27.678;2023-02-15T16:36:29;998;;;0.9;56.8
62980;BME280;49075;53.988;27.678;2023-02-15T16:41:20;998;;;0.8;57.1
62980;BME280;49075;53.988;27.678;2023-02-15T16:46:20;998;;;0.8;57.4
62980;BME280;49075;53.988;27.678;2023-02-15T16:51:20;998;;;0.7;57.4
62980;BME280;49075;53.988;27.678;2023-02-15T16:56:22;998.1;;;0.7;57.8
62980;BME280;49075;53.988;27.678;2023-02-15T17:01:28;998;;;0.7;57.7
62980;BME280;49075;53.988;27.678;2023-02-15T17:06:27;998;;;0.5;58.4
62980;BME280;49075;53.988;27.678;2023-02-15T17:11:33;998;;;0.5;58.3
62980;BME280;49075;53.988;27.678;2023-02-15T17:16:23;998;;;0.5;58.6
62980;BME280;49075;53.988;27.678;2023-02-15T17:21:30;998;;;0.4;58.5
62980;BME280;49075;53.988;27.678;2023-02-15T17:27:05;998.1;;;0.3;59.4
62980;BME280;49075;53.988;27.678;2023-02-15T17:31:18;998;;;0.3;59.1
62980;BME280;49075;53.988;27.678;2023-02-15T17:36:31;998;;;0.1;59.9
62980;BME280;49075;53.988;27.678;2023-02-15T17:41:19;998;;;0.1;59.7
62980;BME280;49075;53.988;27.678;2023-02-15T17:46:41;998;;;0;60.8
62980;BME280;49075;53.988;27.678;2023-02-15T17:51:41;998;;;-0.1;60.5
62980;BME280;49075;53.988;27.678;2023-02-15T17:56:17;998;;;-0.2;61.4
62980;BME280;49075;53.988;27.678;2023-02-15T18:01:27;998;;;-0.2;60.9
62980;BME280;49075;53.988;27.678;2023-02-15T18:06:29;998;;;-0.3;61.7
62980;BME280;49075;53.988;27.678;2023-02-15T18:11:19;998;;;-0.3;61.1
62980;BME280;49075;53.988;27.678;2023-02-15T18:16:21;998;;;-0.4;61.8
62980;BME280;49075;53.988;27.678;2023-02-15T18:21:41;998;;;-0.5;61.6
62980;BME280;49075;53.988;27.678;2023-02-15T18:26:29;997.9;;;-0.5;62.4
62980;BME280;49075;53.988;27.678;2023-02-15T18:31:29;997.9;;;-0.5;62.1
62980;BME280;49075;53.988;27.678;2023-02-15T18:36:28;997.9;;;-0.4;62.5
62980;BME280;49075;53.988;27.678;2023-02-15T18:41:37;997.9;;;-0.3;62.4
62980;BME280;49075;53.988;27.678;2023-02-15T18:46:39;997.8;;;-0.2;62.7
62980;BME280;49075;53.988;27.678;2023-02-15T18:51:20;997.7;;;-0.1;62.5
62980;BME280;49075;53.988;27.678;2023-02-15T18:56:20;997.7;;;-0.1;62.5
62980;BME280;49075;53.988;27.678;2023-02-15T19:01:37;997.6;;;0;62.9
62980;BME280;49075;53.988;27.678;2023-02-15T19:06:18;997.6;;;0;63
62980;BME280;49075;53.988;27.678;2023-02-15T19:11:20;997.6;;;-0.1;63.7
62980;BME280;49075;53.988;27.678;2023-02-15T19:16:25;997.5;;;-0.3;64.2
62980;BME280;49075;53.988;27.678;2023-02-15T19:21:19;997.5;;;-0.3;64.5
62980;BME280;49075;53.988;27.678;2023-02-15T19:26:19;997.5;;;-0.3;64.3
62980;BME280;49075;53.988;27.678;2023-02-15T19:31:27;997.5;;;-0.3;64.3
62980;BME280;49075;53.988;27.678;2023-02-15T19:36:19;997.5;;;0.1;63.2
62980;BME280;49075;53.988;27.678;2023-02-15T19:41:40;997.5;;;0.1;63.4
62980;BME280;49075;53.988;27.678;2023-02-15T19:46:20;997.5;;;0;63.7
62980;BME280;49075;53.988;27.678;2023-02-15T19:51:27;997.5;;;-0.1;64.1
62980;BME280;49075;53.988;27.678;2023-02-15T19:56:20;997.5;;;0.3;63.3
62980;BME280;49075;53.988;27.678;2023-02-15T20:06:52;997.4;;;0.1;63.8
62980;BME280;49075;53.988;27.678;2023-02-15T20:11:43;997.4;;;0.2;63.6
62980;BME280;49075;53.988;27.678;2023-02-15T20:16:29;997.5;;;0.2;63.9
62980;BME280;49075;53.988;27.678;2023-02-15T20:21:19;997.4;;;0.2;64
62980;BME280;49075;53.988;27.678;2023-02-15T20:26:29;997.3;;;0.3;64.1
62980;BME280;49075;53.988;27.678;2023-02-15T20:31:47;997.3;;;0.2;64.4
62980;BME280;49075;53.988;27.678;2023-02-15T20:36:29;997.3;;;0.1;65
62980;BME280;49075;53.988;27.678;2023-02-15T20:41:30;997.3;;;0;64.8
62980;BME280;49075;53.988;27.678;2023-02-15T20:46:29;997.2;;;0;65.7
62980;BME280;49075;53.988;27.678;2023-02-15T20:51:31;997.3;;;0.1;65.3
62980;BME280;49075;53.988;27.678;2023-02-15T20:56:20;997.2;;;0.1;65.6
62980;BME280;49075;53.988;27.678;2023-02-15T21:01:19;997.2;;;0.1;65.6
62980;BME280;49075;53.988;27.678;2023-02-15T21:06:19;997.2;;;0.1;65.9
62980;BME280;49075;53.988;27.678;2023-02-15T21:11:20;997.2;;;0.1;66.1
62980;BME280;49075;53.988;27.678;2023-02-15T21:16:31;997.1;;;0.1;66.1
62980;BME280;49075;53.988;27.678;2023-02-15T21:21:21;997.1;;;0;66.5
62980;BME280;49075;53.988;27.678;2023-02-15T21:27:05;997.1;;;0;66.5
62980;BME280;49075;53.988;27.678;2023-02-15T21:31:49;997;;;-0.1;66.7
62980;BME280;49075;53.988;27.678;2023-02-15T21:36:20;997;;;-0.1;66.9
62980;BME280;49075;53.988;27.678;2023-02-15T21:41:29;997;;;-0.2;67.2
62980;BME280;49075;53.988;27.678;2023-02-15T21:46:19;997;;;-0.2;67.3
62980;BME280;49075;53.988;27.678;2023-02-15T21:51:19;997;;;-0.3;67.7
62980;BME280;49075;53.988;27.678;2023-02-15T21:56:41;996.9;;;-0.2;67.1
62980;BME280;49075;53.988;27.678;2023-02-15T22:01:29;996.9;;;-0.3;67.9
62980;BME280;49075;53.988;27.678;2023-02-15T22:06:37;996.8;;;-0.3;67.2
62980;BME280;49075;53.988;27.678;2023-02-15T22:11:20;996.8;;;-0.4;68.2
62980;BME280;49075;53.988;27.678;2023-02-15T22:17:05;996.8;;;-0.4;67.6
62980;BME280;49075;53.988;27.678;2023-02-15T22:21:39;996.7;;;-0.4;68.6
62980;BME280;49075;53.988;27.678;2023-02-15T22:26:43;996.7;;;-0.4;67.8
62980;BME280;49075;53.988;27.678;2023-02-15T22:31:20;996.7;;;-0.4;68.8
62980;BME280;49075;53.988;27.678;2023-02-15T22:36:21;996.7;;;-0.4;68
62980;BME280;49075;53.988;27.678;2023-02-15T22:41:28;996.7;;;-0.4;68.7
62980;BME280;49075;53.988;27.678;2023-02-15T22:46:59;996.6;;;-0.3;68.1
62980;BME280;49075;53.988;27.678;2023-02-15T22:51:41;996.6;;;-0.4;68.8
62980;BME280;49075;53.988;27.678;2023-02-15T22:56:20;996.6;;;-0.3;68.2
62980;BME280;49075;53.988;27.678;2023-02-15T23:01:41;996.6;;;-0.3;69
62980;BME280;49075;53.988;27.678;2023-02-15T23:06:17;996.6;;;-0.3;68.5
62980;BME280;49075;53.988;27.678;2023-02-15T23:11:41;996.5;;;-0.4;69.1
62980;BME280;49075;53.988;27.678;2023-02-15T23:16:19;996.5;;;-0.3;68.7
62980;BME280;49075;53.988;27.678;2023-02-15T23:21:20;996.5;;;-0.4;69.4
62980;BME280;49075;53.988;27.678;2023-02-15T23:26:30;996.4;;;-0.3;68.8
62980;BME280;49075;53.988;27.678;2023-02-15T23:31:20;996.4;;;-0.3;69.2
62980;BME280;49075;53.988;27.678;2023-02-15T23:36:28;996.3;;;-0.3;68.9
62980;BME280;49075;53.988;27.678;2023-02-15T23:41:41;996.3;;;-0.4;69.3
62980;BME280;49075;53.988;27.678;2023-02-15T23:46:32;996.2;;;-0.4;68.9
62980;BME280;49075;53.988;27.678;2023-02-15T23:51:42;996.2;;;-0.4;69.6
62980;BME280;49075;53.988;27.678;2023-02-15T23:56:29;996.2;;;-0.4;69.2
